Time;durP1;ratioP1;P1;durP2;ratioP2;P2;SDS_P1;SDS_P2;PMS_P1;PMS_P2;Temp;Humidity;BMP_temperature;BMP_pressure;BME280_temperature;BME280_humidity;BME280_pressure;Samples;Min_cycle;Max_cycle;Signal;HPM_P1;HPM_P2
2022/07/12 00:02:01;;;;;;;1.13;1.03;;;;;;;;;;5014853;28;20765;-66
2022/07/12 00:04:34;;;;;;;1.33;0.80;;;;;;;;;;5015422;28;20249;-66
2022/07/12 00:07:07;;;;;;;1.70;1.50;;;;;;;;;;5041289;28;20202;-66
2022/07/12 00:09:38;;;;;;;1.13;0.90;;;;;;;;;;5026761;28;20195;-66
2022/07/12 00:12:09;;;;;;;1.93;1.27;;;;;;;;;;5035469;28;20207;-67
2022/07/12 00:14:42;;;;;;;1.40;1.20;;;;;;;;;;5027685;28;20199;-66
2022/07/12 00:17:24;;;;;;;3.97;1.30;;;;;;;;;;5016348;28;20191;-67
2022/07/12 00:19:59;;;;;;;2.03;1.40;;;;;;;;;;5029377;28;20233;-67
2022/07/12 00:22:30;;;;;;;1.30;1.20;;;;;;;;;;5009872;28;20195;-67
2022/07/12 00:25:02;;;;;;;2.40;1.17;;;;;;;;;;5023713;28;20268;-66
2022/07/12 00:27:33;;;;;;;2.03;1.20;;;;;;;;;;5024910;28;20191;-66
2022/07/12 00:30:08;;;;;;;1.27;1.17;;;;;;;;;;5034425;28;20215;-67
2022/07/12 00:32:36;;;;;;;1.27;1.17;;;;;;;;;;5019685;28;20206;-67
2022/07/12 00:35:08;;;;;;;2.53;1.53;;;;;;;;;;5000094;28;20195;-67
2022/07/12 00:37:39;;;;;;;2.93;1.43;;;;;;;;;;5008647;28;20199;-66
2022/07/12 00:40:08;;;;;;;2.00;1.43;;;;;;;;;;5034914;28;20290;-67
2022/07/12 00:42:39;;;;;;;1.87;1.60;;;;;;;;;;5018977;28;20190;-66
2022/07/12 00:45:11;;;;;;;3.93;1.53;;;;;;;;;;5035544;28;20338;-66
2022/07/12 00:47:46;;;;;;;2.53;1.20;;;;;;;;;;5010367;28;20231;-66
2022/07/12 00:50:23;;;;;;;1.43;1.13;;;;;;;;;;5032246;28;20201;-66
2022/07/12 00:52:56;;;;;;;2.23;1.20;;;;;;;;;;5026125;28;20210;-66
2022/07/12 00:55:27;;;;;;;2.50;1.30;;;;;;;;;;5014108;28;20851;-66
2022/07/12 00:57:58;;;;;;;2.63;1.30;;;;;;;;;;5011824;28;20194;-66
2022/07/12 01:00:34;;;;;;;1.53;1.30;;;;;;;;;;5006492;28;20273;-66
2022/07/12 01:03:02;;;;;;;2.10;1.20;;;;;;;;;;5034244;28;20262;-66
2022/07/12 01:05:35;;;;;;;2.43;1.43;;;;;;;;;;5033136;28;20186;-66
2022/07/12 01:08:10;;;;;;;2.73;1.30;;;;;;;;;;5012167;28;20344;-66
2022/07/12 01:10:45;;;;;;;1.93;1.17;;;;;;;;;;5033241;28;20223;-66
2022/07/12 01:13:14;;;;;;;1.80;1.27;;;;;;;;;;5005458;28;20695;-66
2022/07/12 01:15:45;;;;;;;1.30;1.20;;;;;;;;;;5031425;28;20195;-66
2022/07/12 01:18:15;;;;;;;1.83;1.23;;;;;;;;;;5009943;28;20202;-66
2022/07/12 01:20:48;;;;;;;1.13;1.00;;;;;;;;;;4998272;28;20301;-67
2022/07/12 01:23:26;;;;;;;3.17;1.30;;;;;;;;;;5005247;28;20190;-66
2022/07/12 01:26:00;;;;;;;3.67;1.40;;;;;;;;;;5027077;28;20199;-67
2022/07/12 01:28:32;;;;;;;3.50;1.20;;;;;;;;;;5009083;28;20207;-67
2022/07/12 01:31:03;;;;;;;1.20;1.10;;;;;;;;;;5006384;28;20219;-67
2022/07/12 01:33:36;;;;;;;1.43;1.33;;;;;;;;;;4999120;28;20199;-66
2022/07/12 01:36:06;;;;;;;1.93;1.10;;;;;;;;;;5010763;28;20226;-66
2022/07/12 01:38:39;;;;;;;6.57;1.53;;;;;;;;;;5040211;28;20194;-66
2022/07/12 01:41:09;;;;;;;3.70;1.43;;;;;;;;;;5041524;28;20202;-66
2022/07/12 01:43:41;;;;;;;2.13;1.10;;;;;;;;;;5028286;28;20186;-67
2022/07/12 01:46:23;;;;;;;5.00;1.10;;;;;;;;;;5027774;28;20234;-67
2022/07/12 01:48:54;;;;;;;5.80;1.47;;;;;;;;;;5045658;28;20748;-66
2022/07/12 01:51:27;;;;;;;1.40;1.13;;;;;;;;;;5046977;28;20217;-66
2022/07/12 01:53:57;;;;;;;4.40;1.00;;;;;;;;;;5011280;28;20207;-66
2022/07/12 01:56:29;;;;;;;3.00;1.20;;;;;;;;;;5040792;28;20195;-66
2022/07/12 01:58:57;;;;;;;2.13;1.00;;;;;;;;;;5035777;28;20196;-66
2022/07/12 02:01:30;;;;;;;2.93;1.50;;;;;;;;;;5017931;28;20277;-66
2022/07/12 02:04:04;;;;;;;5.83;1.43;;;;;;;;;;5030742;28;20335;-66
2022/07/12 02:06:38;;;;;;;3.17;1.23;;;;;;;;;;5023779;28;20217;-66
2022/07/12 02:09:12;;;;;;;1.67;1.07;;;;;;;;;;5017161;28;20206;-66
2022/07/12 02:11:42;;;;;;;2.63;1.10;;;;;;;;;;5042190;28;20228;-66
2022/07/12 02:14:14;;;;;;;2.33;1.10;;;;;;;;;;5047751;28;20203;-66
2022/07/12 02:16:46;;;;;;;2.27;1.27;;;;;;;;;;5032825;28;20191;-66
2022/07/12 02:19:16;;;;;;;2.00;1.20;;;;;;;;;;4998218;28;20195;-67
2022/07/12 02:21:47;;;;;;;4.57;1.40;;;;;;;;;;5012117;28;20301;-66
2022/07/12 02:24:21;;;;;;;4.33;1.30;;;;;;;;;;5026444;28;20212;-66
2022/07/12 02:26:58;;;;;;;2.23;1.20;;;;;;;;;;5013894;28;20199;-66
2022/07/12 02:29:30;;;;;;;2.30;1.33;;;;;;;;;;5029319;28;20199;-66
2022/07/12 02:32:02;;;;;;;2.67;1.50;;;;;;;;;;5029062;28;20245;-66
2022/07/12 02:34:35;;;;;;;2.87;1.30;;;;;;;;;;5020412;28;20203;-66
2022/07/12 02:37:05;;;;;;;5.00;1.73;;;;;;;;;;5023316;28;20229;-66
2022/07/12 02:39:36;;;;;;;2.13;1.30;;;;;;;;;;5045044;28;20423;-66
2022/07/12 02:42:08;;;;;;;4.60;1.47;;;;;;;;;;5037852;28;20207;-66
2022/07/12 02:44:37;;;;;;;4.73;1.30;;;;;;;;;;5032356;28;20712;-66
2022/07/12 02:47:08;;;;;;;2.20;1.40;;;;;;;;;;5032544;28;20242;-68
2022/07/12 02:49:39;;;;;;;3.57;1.50;;;;;;;;;;5041222;28;20210;-66
2022/07/12 02:52:07;;;;;;;1.50;1.20;;;;;;;;;;5037273;28;20566;-66
2022/07/12 02:54:40;;;;;;;2.57;1.10;;;;;;;;;;5035405;28;20264;-66
2022/07/12 02:57:09;;;;;;;4.13;1.30;;;;;;;;;;5041594;28;20199;-66
2022/07/12 02:59:41;;;;;;;5.40;1.40;;;;;;;;;;5035231;28;20553;-65
2022/07/12 03:02:10;;;;;;;3.33;1.30;;;;;;;;;;5029816;28;20238;-65
2022/07/12 03:04:38;;;;;;;3.23;1.37;;;;;;;;;;5033166;28;20207;-65
2022/07/12 03:07:13;;;;;;;3.20;1.40;;;;;;;;;;5037430;28;20266;-65
2022/07/12 03:09:41;;;;;;;2.20;1.30;;;;;;;;;;5035453;28;20183;-65
2022/07/12 03:12:14;;;;;;;1.43;1.20;;;;;;;;;;5025187;28;20211;-65
2022/07/12 03:14:45;;;;;;;1.13;1.03;;;;;;;;;;5028937;28;20229;-65
2022/07/12 03:17:20;;;;;;;1.63;1.13;;;;;;;;;;5030452;28;20566;-65
2022/07/12 03:19:50;;;;;;;1.10;1.00;;;;;;;;;;5017148;28;20215;-65
2022/07/12 03:22:23;;;;;;;1.67;1.30;;;;;;;;;;5032990;28;20210;-65
2022/07/12 03:24:53;;;;;;;3.03;1.40;;;;;;;;;;5023931;28;20645;-65
2022/07/12 03:27:25;;;;;;;1.30;1.20;;;;;;;;;;5035231;28;20202;-65
2022/07/12 03:30:02;;;;;;;2.90;1.50;;;;;;;;;;5039629;28;20209;-65
2022/07/12 03:32:31;;;;;;;1.53;1.23;;;;;;;;;;5029358;28;20510;-65
2022/07/12 03:35:00;;;;;;;1.20;1.10;;;;;;;;;;5028548;28;20640;-65
2022/07/12 03:37:48;;;;;;;1.30;1.20;;;;;;;;;;5009440;28;20223;-65
2022/07/12 03:40:21;;;;;;;3.70;1.53;;;;;;;;;;5028415;28;20191;-65
2022/07/12 03:42:55;;;;;;;1.97;1.10;;;;;;;;;;5029326;28;20210;-65
2022/07/12 03:45:25;;;;;;;1.43;1.10;;;;;;;;;;5037013;28;20202;-65
2022/07/12 03:47:53;;;;;;;1.73;1.10;;;;;;;;;;5029074;28;20339;-65
2022/07/12 03:50:27;;;;;;;1.80;1.03;;;;;;;;;;5010736;28;20195;-65
2022/07/12 03:53:02;;;;;;;3.93;1.20;;;;;;;;;;5025754;28;20627;-65
2022/07/12 03:55:34;;;;;;;1.20;0.97;;;;;;;;;;5043434;28;20220;-65
2022/07/12 03:58:03;;;;;;;2.77;1.10;;;;;;;;;;5037750;28;20207;-65
2022/07/12 04:00:33;;;;;;;5.30;1.17;;;;;;;;;;5026728;28;20214;-62
2022/07/12 04:03:06;;;;;;;1.60;1.30;;;;;;;;;;5031763;28;20663;-62
2022/07/12 04:05:35;;;;;;;1.50;1.20;;;;;;;;;;5036975;28;21252;-62
2022/07/12 04:08:07;;;;;;;1.37;1.00;;;;;;;;;;5006199;28;20660;-62
2022/07/12 04:10:39;;;;;;;3.13;1.10;;;;;;;;;;5046038;28;20218;-66
2022/07/12 04:13:13;;;;;;;2.37;0.90;;;;;;;;;;5027973;28;20210;-64
2022/07/12 04:15:42;;;;;;;1.13;0.97;;;;;;;;;;5013152;28;20196;-64
2022/07/12 04:18:25;;;;;;;3.57;1.03;;;;;;;;;;5025719;28;20198;-64
2022/07/12 04:20:59;;;;;;;2.03;0.90;;;;;;;;;;5026669;28;20214;-64
2022/07/12 04:23:31;;;;;;;1.87;0.80;;;;;;;;;;5031524;28;20194;-65
2022/07/12 04:26:02;;;;;;;2.07;0.93;;;;;;;;;;5026237;28;20198;-62
2022/07/12 04:28:35;;;;;;;1.93;1.00;;;;;;;;;;5028697;28;20584;-63
2022/07/12 04:31:06;;;;;;;2.73;1.10;;;;;;;;;;5032704;28;20260;-65
2022/07/12 04:33:38;;;;;;;2.10;1.30;;;;;;;;;;5033944;28;20203;-65
2022/07/12 04:36:13;;;;;;;1.00;0.83;;;;;;;;;;5039614;28;20256;-65
2022/07/12 04:38:42;;;;;;;1.80;1.00;;;;;;;;;;5033602;28;20195;-65
2022/07/12 04:41:12;;;;;;;1.67;1.23;;;;;;;;;;5043440;28;20202;-63
2022/07/12 04:43:50;;;;;;;2.67;0.93;;;;;;;;;;5026897;28;20191;-63
2022/07/12 04:46:19;;;;;;;2.33;1.30;;;;;;;;;;5013150;28;20299;-63
2022/07/12 04:48:48;;;;;;;2.03;1.13;;;;;;;;;;5016180;28;20238;-63
2022/07/12 04:51:32;;;;;;;1.20;1.10;;;;;;;;;;5021912;28;20209;-63
2022/07/12 04:54:06;;;;;;;1.63;1.00;;;;;;;;;;5037419;28;20646;-63
2022/07/12 04:56:38;;;;;;;4.73;1.10;;;;;;;;;;5035132;28;20213;-65
2022/07/12 04:59:10;;;;;;;2.17;1.20;;;;;;;;;;5036798;28;20514;-65
2022/07/12 05:01:42;;;;;;;2.53;1.10;;;;;;;;;;5040611;28;20224;-62
2022/07/12 05:04:19;;;;;;;1.90;1.30;;;;;;;;;;5040886;28;20353;-63
2022/07/12 05:06:50;;;;;;;2.57;1.50;;;;;;;;;;5029449;28;20225;-65
2022/07/12 05:09:18;;;;;;;2.27;1.30;;;;;;;;;;5008132;28;20239;-65
2022/07/12 05:11:49;;;;;;;2.40;1.53;;;;;;;;;;5023353;28;20210;-62
2022/07/12 05:14:21;;;;;;;3.27;1.43;;;;;;;;;;5028350;28;20230;-63
2022/07/12 05:16:53;;;;;;;2.47;1.57;;;;;;;;;;5027368;28;20179;-63
2022/07/12 05:19:23;;;;;;;2.23;1.63;;;;;;;;;;5024673;28;20210;-63
2022/07/12 05:21:55;;;;;;;3.57;1.87;;;;;;;;;;5029157;28;20616;-63
2022/07/12 05:24:27;;;;;;;2.53;2.20;;;;;;;;;;5026951;28;20199;-64
2022/07/12 05:27:13;;;;;;;2.80;1.80;;;;;;;;;;5024073;28;20231;-63
2022/07/12 05:29:43;;;;;;;2.33;2.10;;;;;;;;;;5039110;28;20198;-63
2022/07/12 05:32:14;;;;;;;3.43;2.27;;;;;;;;;;5010465;28;20295;-66
2022/07/12 05:34:46;;;;;;;2.47;2.27;;;;;;;;;;5029503;28;20226;-67
2022/07/12 05:37:17;;;;;;;3.17;2.73;;;;;;;;;;5039261;28;20628;-66
2022/07/12 05:39:49;;;;;;;2.60;2.33;;;;;;;;;;5037630;28;20210;-66
2022/07/12 05:42:19;;;;;;;3.30;2.50;;;;;;;;;;5031984;28;20206;-63
2022/07/12 05:44:53;;;;;;;2.80;2.40;;;;;;;;;;5007982;28;20219;-64
2022/07/12 05:47:23;;;;;;;9.53;2.70;;;;;;;;;;5010787;28;20242;-66
2022/07/12 05:49:54;;;;;;;3.13;2.57;;;;;;;;;;5030252;28;20213;-66
2022/07/12 05:55:17;;;;;;;4.23;2.60;;;;;;;;;;5030141;28;20499;-63
2022/07/12 05:57:53;;;;;;;3.27;2.43;;;;;;;;;;5023923;28;20230;-63
2022/07/12 06:00:24;;;;;;;2.73;2.53;;;;;;;;;;5026973;28;20808;-66
2022/07/12 06:03:03;;;;;;;3.13;2.83;;;;;;;;;;5029729;28;20644;-66
2022/07/12 06:05:35;;;;;;;2.80;2.60;;;;;;;;;;5009073;28;20194;-66
2022/07/12 06:08:06;;;;;;;2.90;2.60;;;;;;;;;;5016888;28;20198;-66
2022/07/12 06:10:40;;;;;;;3.23;2.50;;;;;;;;;;5027142;28;20196;-63
2022/07/12 06:13:12;;;;;;;4.17;3.10;;;;;;;;;;5025814;28;20233;-63
2022/07/12 06:15:42;;;;;;;4.10;2.77;;;;;;;;;;5024639;28;20191;-63
2022/07/12 06:18:15;;;;;;;3.07;2.87;;;;;;;;;;5009473;28;20235;-63
2022/07/12 06:20:46;;;;;;;3.33;3.03;;;;;;;;;;5020060;28;20203;-63
2022/07/12 06:23:23;;;;;;;3.20;2.90;;;;;;;;;;5020967;28;20316;-63
2022/07/12 06:25:53;;;;;;;3.03;2.73;;;;;;;;;;5009564;28;20659;-63
2022/07/12 06:28:24;;;;;;;3.10;2.90;;;;;;;;;;5029332;28;20206;-63
2022/07/12 06:30:54;;;;;;;3.03;2.73;;;;;;;;;;5020715;28;20195;-66
2022/07/12 06:33:25;;;;;;;4.27;2.63;;;;;;;;;;5004961;28;20202;-70
2022/07/12 06:35:54;;;;;;;3.73;2.40;;;;;;;;;;5020639;28;20861;-69
2022/07/12 06:38:25;;;;;;;5.77;2.57;;;;;;;;;;5014673;28;20291;-68
2022/07/12 06:40:55;;;;;;;4.10;2.40;;;;;;;;;;5013226;28;20195;-71
2022/07/12 06:43:26;;;;;;;2.73;2.23;;;;;;;;;;5025855;28;20219;-73
2022/07/12 06:45:55;;;;;;;2.20;2.00;;;;;;;;;;5009355;28;20206;-69
2022/07/12 06:48:28;;;;;;;2.60;2.20;;;;;;;;;;5025797;28;20242;-69
2022/07/12 06:50:57;;;;;;;3.60;2.00;;;;;;;;;;5024527;28;20190;-71
2022/07/12 06:53:29;;;;;;;2.60;2.27;;;;;;;;;;5024883;28;20214;-68
2022/07/12 06:56:00;;;;;;;3.07;2.73;;;;;;;;;;5026213;28;20246;-69
2022/07/12 06:58:29;;;;;;;3.00;2.27;;;;;;;;;;5026879;28;20628;-70
2022/07/12 07:00:59;;;;;;;6.37;2.60;;;;;;;;;;5026594;28;20886;-69
2022/07/12 07:03:29;;;;;;;3.10;2.13;;;;;;;;;;5021730;28;20346;-70
2022/07/12 07:06:02;;;;;;;3.33;2.40;;;;;;;;;;5026186;28;20245;-71
2022/07/12 07:08:36;;;;;;;4.63;2.40;;;;;;;;;;5032039;28;20213;-67
2022/07/12 07:11:06;;;;;;;2.63;2.07;;;;;;;;;;5033747;28;20215;-70
2022/07/12 07:13:36;;;;;;;2.70;2.20;;;;;;;;;;5033352;28;20206;-70
2022/07/12 07:16:14;;;;;;;2.80;2.00;;;;;;;;;;5012012;28;20195;-69
2022/07/12 07:18:46;;;;;;;2.43;2.23;;;;;;;;;;5021781;28;20199;-70
2022/07/12 07:21:15;;;;;;;4.10;2.20;;;;;;;;;;5032616;28;20210;-70
2022/07/12 07:23:46;;;;;;;4.20;2.60;;;;;;;;;;5007589;28;20624;-69
2022/07/12 07:26:18;;;;;;;4.57;2.10;;;;;;;;;;5031877;28;20210;-73
2022/07/12 07:31:37;;;;;;;2.10;1.90;;;;;;;;;;5033478;28;20225;-70
2022/07/12 07:34:14;;;;;;;2.27;2.07;;;;;;;;;;5033367;28;20194;-65
2022/07/12 07:36:55;;;;;;;6.60;2.07;;;;;;;;;;5018166;28;20211;-69
2022/07/12 07:39:25;;;;;;;2.53;2.20;;;;;;;;;;5027873;28;20195;-70
2022/07/12 07:41:55;;;;;;;4.37;2.60;;;;;;;;;;5036310;28;20186;-72
2022/07/12 07:44:23;;;;;;;5.00;3.07;;;;;;;;;;5030974;28;20183;-68
2022/07/12 07:47:00;;;;;;;3.13;2.67;;;;;;;;;;5025914;28;20289;-70
2022/07/12 07:49:33;;;;;;;3.23;2.70;;;;;;;;;;5019623;28;20261;-71
2022/07/12 07:52:07;;;;;;;2.97;2.73;;;;;;;;;;5025884;28;20196;-67
2022/07/12 07:54:42;;;;;;;4.30;2.60;;;;;;;;;;5026164;28;20191;-67
2022/07/12 07:57:15;;;;;;;3.43;2.63;;;;;;;;;;5021775;28;20234;-70
2022/07/12 07:59:44;;;;;;;2.83;2.10;;;;;;;;;;5022690;28;20210;-67
2022/07/12 08:02:13;;;;;;;2.53;2.00;;;;;;;;;;5009583;28;20210;-71
2022/07/12 08:04:43;;;;;;;4.60;2.80;;;;;;;;;;4993973;28;20215;-69
2022/07/12 08:07:12;;;;;;;3.87;2.47;;;;;;;;;;5031026;28;20578;-68
2022/07/12 08:10:02;;;;;;;2.77;1.93;;;;;;;;;;5027542;28;20306;-67
2022/07/12 08:12:38;;;;;;;5.13;2.27;;;;;;;;;;4999226;28;20708;-68
2022/07/12 08:15:06;;;;;;;2.00;1.90;;;;;;;;;;5008045;28;20584;-69
2022/07/12 08:17:36;;;;;;;2.13;1.83;;;;;;;;;;5024382;28;20201;-69
2022/07/12 08:20:14;;;;;;;6.03;2.30;;;;;;;;;;5023922;28;20283;-67
2022/07/12 08:23:02;;;;;;;2.10;1.90;;;;;;;;;;5010190;28;20313;-68
2022/07/12 08:25:33;;;;;;;2.50;1.67;;;;;;;;;;5019193;28;20296;-69
2022/07/12 08:28:02;;;;;;;2.73;1.60;;;;;;;;;;5026091;28;20187;-67
2022/07/12 08:30:32;;;;;;;2.97;1.90;;;;;;;;;;5012146;28;20193;-68
2022/07/12 08:33:10;;;;;;;3.50;1.97;;;;;;;;;;5028378;28;20217;-70
2022/07/12 08:35:39;;;;;;;2.90;1.80;;;;;;;;;;5000428;28;20880;-68
2022/07/12 08:38:10;;;;;;;3.77;1.77;;;;;;;;;;5009414;28;20256;-68
2022/07/12 08:40:41;;;;;;;3.60;1.80;;;;;;;;;;5026380;28;20226;-68
2022/07/12 08:43:26;;;;;;;2.13;1.40;;;;;;;;;;5007195;28;20294;-68
2022/07/12 08:46:05;;;;;;;2.97;1.60;;;;;;;;;;5017971;28;20255;-67
2022/07/12 08:48:36;;;;;;;3.33;1.57;;;;;;;;;;5007498;28;20240;-67
2022/07/12 08:51:13;;;;;;;2.17;1.70;;;;;;;;;;5027558;28;20699;-69
2022/07/12 08:53:46;;;;;;;1.40;1.30;;;;;;;;;;5023652;28;20194;-66
2022/07/12 08:56:35;;;;;;;1.80;1.40;;;;;;;;;;5024467;28;20202;-69
2022/07/12 08:59:14;;;;;;;1.50;1.40;;;;;;;;;;5025668;28;20209;-70
2022/07/12 09:01:55;;;;;;;1.50;1.40;;;;;;;;;;5022376;28;20198;-68
2022/07/12 09:04:28;;;;;;;7.43;1.50;;;;;;;;;;4999104;28;20226;-71
2022/07/12 09:07:15;;;;;;;2.20;1.67;;;;;;;;;;5010761;28;20538;-72
2022/07/12 09:09:48;;;;;;;1.73;1.30;;;;;;;;;;5031782;28;20194;-69
2022/07/12 09:12:22;;;;;;;1.57;1.47;;;;;;;;;;5003673;28;20219;-70
2022/07/12 09:14:58;;;;;;;1.77;1.40;;;;;;;;;;5009878;28;20186;-68
2022/07/12 09:18:12;;;;;;;1.80;1.70;;;;;;;;;;5027929;28;20241;-67
2022/07/12 09:20:47;;;;;;;2.00;1.80;;;;;;;;;;5018798;28;20247;-68
2022/07/12 09:23:19;;;;;;;1.93;1.73;;;;;;;;;;5019016;28;20837;-68
2022/07/12 09:25:48;;;;;;;1.83;1.50;;;;;;;;;;5025056;28;20211;-68
2022/07/12 09:28:20;;;;;;;2.00;1.77;;;;;;;;;;5029197;28;20257;-67
2022/07/12 09:30:53;;;;;;;2.23;1.67;;;;;;;;;;5029756;28;20202;-69
2022/07/12 09:36:15;;;;;;;1.90;1.70;;;;;;;;;;5025507;28;20707;-69
2022/07/12 09:39:00;;;;;;;1.30;1.20;;;;;;;;;;5026425;28;20199;-68
2022/07/12 09:41:42;;;;;;;4.70;1.60;;;;;;;;;;5017103;28;20195;-67
2022/07/12 09:44:19;;;;;;;2.60;1.30;;;;;;;;;;5029162;28;20562;-66
2022/07/12 09:46:52;;;;;;;2.00;1.77;;;;;;;;;;5025561;28;20234;-68
2022/07/12 09:49:48;;;;;;;1.57;1.40;;;;;;;;;;5027056;28;20218;-69
2022/07/12 09:52:42;;;;;;;1.70;1.60;;;;;;;;;;5009711;28;20194;-68
2022/07/12 09:55:12;;;;;;;1.80;1.70;;;;;;;;;;5025489;28;20214;-69
2022/07/12 09:57:44;;;;;;;1.70;1.60;;;;;;;;;;5027914;28;20616;-69
2022/07/12 10:00:14;;;;;;;1.80;1.70;;;;;;;;;;5030805;28;20215;-69
2022/07/12 10:02:44;;;;;;;1.90;1.70;;;;;;;;;;5030898;28;20199;-68
2022/07/12 10:05:16;;;;;;;2.70;1.30;;;;;;;;;;5028742;28;20501;-68
2022/07/12 10:07:48;;;;;;;1.67;1.57;;;;;;;;;;5016446;28;20246;-68
2022/07/12 10:10:20;;;;;;;1.70;1.60;;;;;;;;;;5019973;28;20640;-69
2022/07/12 10:12:52;;;;;;;1.83;1.73;;;;;;;;;;5025066;28;20224;-69
2022/07/12 10:15:28;;;;;;;1.50;1.40;;;;;;;;;;5007154;28;20187;-68
2022/07/12 10:18:05;;;;;;;1.80;1.40;;;;;;;;;;5008745;28;20199;-70
2022/07/12 10:20:52;;;;;;;2.37;1.53;;;;;;;;;;5006331;28;20182;-69
2022/07/12 10:23:21;;;;;;;1.40;1.30;;;;;;;;;;5006122;28;20730;-68
2022/07/12 10:25:51;;;;;;;3.20;1.80;;;;;;;;;;5010999;28;20199;-65
2022/07/12 10:28:23;;;;;;;2.20;1.70;;;;;;;;;;5027622;28;20187;-65
2022/07/12 10:30:56;;;;;;;3.27;1.97;;;;;;;;;;5031514;28;20264;-64
2022/07/12 10:33:29;;;;;;;2.10;1.90;;;;;;;;;;5028569;28;20203;-63
2022/07/12 10:36:10;;;;;;;2.20;1.60;;;;;;;;;;5027332;28;20218;-62
2022/07/12 10:39:14;;;;;;;2.73;1.60;;;;;;;;;;5029682;28;20261;-63
2022/07/12 10:41:42;;;;;;;1.90;1.80;;;;;;;;;;5003392;28;20210;-63
2022/07/12 10:44:35;;;;;;;3.63;2.03;;;;;;;;;;5011196;28;20213;-65
2022/07/12 10:47:12;;;;;;;2.33;2.13;;;;;;;;;;5031539;28;20268;-63
2022/07/12 10:49:54;;;;;;;2.13;1.90;;;;;;;;;;5022175;28;20199;-63
2022/07/12 10:52:28;;;;;;;3.53;2.10;;;;;;;;;;5027808;28;20209;-62
2022/07/12 10:54:59;;;;;;;1.97;1.87;;;;;;;;;;5005747;28;20213;-62
2022/07/12 10:57:56;;;;;;;1.93;1.80;;;;;;;;;;5026066;28;20274;-62
2022/07/12 11:00:28;;;;;;;2.90;1.90;;;;;;;;;;5016019;28;20435;-70
2022/07/12 11:03:01;;;;;;;2.50;1.87;;;;;;;;;;5010567;28;20309;-69
2022/07/12 11:05:30;;;;;;;1.97;1.70;;;;;;;;;;4992528;28;20187;-70
2022/07/12 11:08:14;;;;;;;2.10;1.90;;;;;;;;;;5028857;28;20202;-68
2022/07/12 11:10:59;;;;;;;1.83;1.70;;;;;;;;;;5019118;28;20190;-69
2022/07/12 11:13:26;;;;;;;1.70;1.60;;;;;;;;;;4997290;28;20214;-68
2022/07/12 11:16:03;;;;;;;1.93;1.83;;;;;;;;;;5026287;28;20207;-69
2022/07/12 11:18:35;;;;;;;1.80;1.70;;;;;;;;;;5025421;28;20210;-69
2022/07/12 11:21:05;;;;;;;1.93;1.70;;;;;;;;;;5000535;28;20199;-68
2022/07/12 11:23:40;;;;;;;1.60;1.50;;;;;;;;;;5003422;28;21599;-68
2022/07/12 11:26:13;;;;;;;1.70;1.60;;;;;;;;;;5024769;28;20202;-69
2022/07/12 11:28:48;;;;;;;1.70;1.60;;;;;;;;;;5025608;28;20621;-69
2022/07/12 11:31:21;;;;;;;1.77;1.67;;;;;;;;;;5003258;28;20608;-72
2022/07/12 11:33:53;;;;;;;2.17;1.70;;;;;;;;;;5008489;28;20290;-70
2022/07/12 11:36:26;;;;;;;1.67;1.57;;;;;;;;;;5028430;28;20290;-68
2022/07/12 11:38:58;;;;;;;1.60;1.50;;;;;;;;;;5013327;28;20209;-68
2022/07/12 11:41:27;;;;;;;1.63;1.43;;;;;;;;;;5024592;28;20210;-68
2022/07/12 11:43:57;;;;;;;2.37;1.70;;;;;;;;;;5025121;28;20277;-68
2022/07/12 11:46:29;;;;;;;1.87;1.77;;;;;;;;;;5018174;28;20233;-69
2022/07/12 11:48:59;;;;;;;3.63;1.63;;;;;;;;;;5007330;28;20608;-69
2022/07/12 11:51:33;;;;;;;1.97;1.70;;;;;;;;;;5021291;28;20199;-66
2022/07/12 11:54:15;;;;;;;1.70;1.60;;;;;;;;;;5023979;28;20296;-66
2022/07/12 11:56:48;;;;;;;1.60;1.50;;;;;;;;;;5028119;28;20203;-66
2022/07/12 11:59:22;;;;;;;1.77;1.57;;;;;;;;;;5026156;28;20267;-66
2022/07/12 12:02:19;;;;;;;1.63;1.53;;;;;;;;;;5021858;28;20215;-66
2022/07/12 12:04:55;;;;;;;1.80;1.70;;;;;;;;;;4957542;28;20250;-65
2022/07/12 12:07:28;;;;;;;1.57;1.47;;;;;;;;;;5024462;28;20205;-66
2022/07/12 12:10:13;;;;;;;1.70;1.60;;;;;;;;;;5025028;28;20245;-67
2022/07/12 12:12:53;;;;;;;1.53;1.40;;;;;;;;;;5022607;28;20546;-66
2022/07/12 12:15:33;;;;;;;1.63;1.53;;;;;;;;;;5007204;28;20187;-64
2022/07/12 12:18:07;;;;;;;2.70;1.53;;;;;;;;;;5032431;28;20203;-64
2022/07/12 12:20:57;;;;;;;2.70;1.30;;;;;;;;;;5026183;28;20634;-64
2022/07/12 12:23:30;;;;;;;1.57;1.47;;;;;;;;;;5023385;28;20628;-64
2022/07/12 12:26:23;;;;;;;2.40;1.57;;;;;;;;;;5009195;28;20206;-65
2022/07/12 12:28:54;;;;;;;1.53;1.43;;;;;;;;;;5026274;28;20207;-65
2022/07/12 12:31:25;;;;;;;1.60;1.50;;;;;;;;;;5021263;28;20848;-65
2022/07/12 12:33:58;;;;;;;1.50;1.40;;;;;;;;;;5024240;28;20265;-65
2022/07/12 12:36:28;;;;;;;1.60;1.50;;;;;;;;;;5020052;28;20241;-67
2022/07/12 12:39:01;;;;;;;1.60;1.50;;;;;;;;;;4995753;28;20302;-68
2022/07/12 12:41:49;;;;;;;1.40;1.30;;;;;;;;;;5023838;28;20225;-68
2022/07/12 12:44:23;;;;;;;2.80;1.40;;;;;;;;;;5029391;28;20309;-68
2022/07/12 12:50:00;;;;;;;1.53;1.30;;;;;;;;;;5030248;28;20199;-68
2022/07/12 12:52:48;;;;;;;2.93;1.40;;;;;;;;;;5012312;28;20835;-68
2022/07/12 12:55:20;;;;;;;1.63;1.43;;;;;;;;;;5023292;28;20674;-69
2022/07/12 12:57:54;;;;;;;1.57;1.27;;;;;;;;;;5025712;28;20198;-69
2022/07/12 13:00:30;;;;;;;1.70;1.50;;;;;;;;;;5027175;28;20223;-65
2022/07/12 13:03:01;;;;;;;1.37;1.30;;;;;;;;;;5026218;28;20212;-66
2022/07/12 13:05:34;;;;;;;1.50;1.30;;;;;;;;;;5029838;28;20211;-69
2022/07/12 13:08:08;;;;;;;1.10;1.00;;;;;;;;;;5016604;28;20202;-70
2022/07/12 13:10:41;;;;;;;1.10;1.10;;;;;;;;;;5010088;28;20217;-70
2022/07/12 13:13:12;;;;;;;1.53;1.40;;;;;;;;;;5028994;28;20225;-69
2022/07/12 13:15:46;;;;;;;1.50;1.40;;;;;;;;;;5004403;28;20195;-66
2022/07/12 13:18:20;;;;;;;1.27;1.17;;;;;;;;;;5010564;28;20218;-68
2022/07/12 13:20:50;;;;;;;2.37;1.03;;;;;;;;;;5031431;28;20264;-67
2022/07/12 13:23:18;;;;;;;1.03;1.03;;;;;;;;;;5024272;28;20210;-66
2022/07/12 13:25:45;;;;;;;1.30;1.10;;;;;;;;;;5027416;28;20535;-67
2022/07/12 13:28:24;;;;;;;1.17;1.07;;;;;;;;;;5026394;28;20211;-66
2022/07/12 13:30:54;;;;;;;1.30;1.20;;;;;;;;;;5026381;28;20195;-68
2022/07/12 13:33:25;;;;;;;1.30;1.20;;;;;;;;;;5022654;28;20187;-69
2022/07/12 13:35:54;;;;;;;2.70;1.40;;;;;;;;;;5019001;28;20219;-68
2022/07/12 13:38:28;;;;;;;1.33;1.23;;;;;;;;;;5009401;28;20212;-69
2022/07/12 13:40:58;;;;;;;1.10;1.00;;;;;;;;;;5008477;28;20199;-67
2022/07/12 13:43:27;;;;;;;2.27;1.10;;;;;;;;;;5023469;28;20195;-65
2022/07/12 13:45:57;;;;;;;1.43;1.33;;;;;;;;;;5028464;28;20199;-64
2022/07/12 13:48:26;;;;;;;1.87;1.30;;;;;;;;;;5016633;28;20245;-65
2022/07/12 13:50:57;;;;;;;2.20;1.50;;;;;;;;;;5028298;28;20648;-67
2022/07/12 13:53:52;;;;;;;2.43;1.50;;;;;;;;;;5023768;28;20546;-69
2022/07/12 13:56:23;;;;;;;1.60;1.23;;;;;;;;;;5018691;28;20836;-68
2022/07/12 13:58:53;;;;;;;2.27;1.30;;;;;;;;;;5026809;28;20206;-67
2022/07/12 14:01:26;;;;;;;1.40;1.30;;;;;;;;;;5017761;28;20195;-66
2022/07/12 14:03:55;;;;;;;1.27;1.03;;;;;;;;;;5031868;28;20186;-65
2022/07/12 14:06:26;;;;;;;1.30;1.20;;;;;;;;;;5020690;28;20199;-65
2022/07/12 14:09:00;;;;;;;1.30;1.20;;;;;;;;;;5030707;28;20864;-64
2022/07/12 14:11:29;;;;;;;1.50;1.40;;;;;;;;;;5017021;28;20200;-64
2022/07/12 14:14:01;;;;;;;1.50;1.40;;;;;;;;;;5019037;28;20221;-65
2022/07/12 14:16:32;;;;;;;1.53;1.27;;;;;;;;;;5022531;28;20190;-65
2022/07/12 14:19:05;;;;;;;1.57;1.30;;;;;;;;;;5029130;28;20215;-65
2022/07/12 14:21:37;;;;;;;11.63;1.70;;;;;;;;;;5026669;28;20198;-64
2022/07/12 14:24:11;;;;;;;1.13;1.10;;;;;;;;;;5026620;28;20249;-64
2022/07/12 14:26:39;;;;;;;1.30;1.20;;;;;;;;;;5028490;28;20662;-64
2022/07/12 14:29:13;;;;;;;1.40;1.30;;;;;;;;;;5023440;28;20185;-64
2022/07/12 14:31:46;;;;;;;1.80;1.70;;;;;;;;;;5026180;28;20206;-65
2022/07/12 14:34:18;;;;;;;2.07;1.50;;;;;;;;;;5012692;28;20687;-67
2022/07/12 14:36:56;;;;;;;4.70;1.30;;;;;;;;;;5027413;28;20214;-66
2022/07/12 14:39:29;;;;;;;1.50;1.40;;;;;;;;;;5015701;28;20198;-65
2022/07/12 14:42:03;;;;;;;1.47;1.33;;;;;;;;;;5027497;28;20195;-67
2022/07/12 14:44:37;;;;;;;1.50;1.40;;;;;;;;;;5022259;28;20250;-68
2022/07/12 14:47:13;;;;;;;1.73;1.40;;;;;;;;;;5032064;28;20325;-66
2022/07/12 14:49:46;;;;;;;1.57;1.47;;;;;;;;;;5022437;28;20260;-67
2022/07/12 14:52:28;;;;;;;2.07;1.47;;;;;;;;;;5032366;28;20190;-68
2022/07/12 14:54:57;;;;;;;3.30;1.47;;;;;;;;;;5026103;28;20656;-69
2022/07/12 14:57:27;;;;;;;1.53;1.43;;;;;;;;;;5026163;28;20892;-67
2022/07/12 14:59:58;;;;;;;1.77;1.50;;;;;;;;;;5026841;28;20212;-66
2022/07/12 15:02:28;;;;;;;1.87;1.77;;;;;;;;;;5026672;28;20199;-67
2022/07/12 15:05:03;;;;;;;1.70;1.37;;;;;;;;;;5027146;28;20218;-69
2022/07/12 15:07:34;;;;;;;1.43;1.33;;;;;;;;;;5019253;28;20191;-68
2022/07/12 15:10:07;;;;;;;1.53;1.43;;;;;;;;;;5030311;28;20777;-68
2022/07/12 15:12:38;;;;;;;1.87;1.40;;;;;;;;;;5023840;28;20249;-67
2022/07/12 15:15:09;;;;;;;3.60;1.50;;;;;;;;;;5029411;28;20248;-66
2022/07/12 15:17:39;;;;;;;1.40;1.30;;;;;;;;;;5018776;28;20203;-66
2022/07/12 15:20:11;;;;;;;1.67;1.50;;;;;;;;;;5030209;28;20237;-66
2022/07/12 15:22:41;;;;;;;1.70;1.60;;;;;;;;;;5027640;28;20195;-67
2022/07/12 15:25:13;;;;;;;1.50;1.40;;;;;;;;;;5023638;28;20250;-67
2022/07/12 15:27:45;;;;;;;2.58;1.42;;;;;;;;;;5004247;28;20095;-66
2022/07/12 15:30:14;;;;;;;2.03;1.10;;;;;;;;;;5034816;28;20704;-64
2022/07/12 15:32:46;;;;;;;1.77;1.50;;;;;;;;;;5026057;28;20241;-64